createdAt,value
2019-02-06T00:01:26.780Z,6.06
2019-02-06T00:03:57.457Z,5.97
2019-02-06T00:06:27.877Z,6.03
2019-02-06T00:08:59.622Z,5.92
2019-02-06T00:11:30.219Z,5.88
2019-02-06T00:14:00.593Z,5.99
2019-02-06T00:16:30.969Z,5.84
2019-02-06T00:19:01.419Z,5.72
2019-02-06T00:21:31.917Z,5.99
2019-02-06T00:24:03.224Z,6.03
2019-02-06T00:26:33.794Z,5.94
2019-02-06T00:29:04.488Z,6.02
2019-02-06T00:31:34.989Z,6.01
2019-02-06T00:34:05.520Z,5.88
2019-02-06T00:36:36.295Z,5.95
2019-02-06T00:39:09.794Z,5.91
2019-02-06T00:41:40.418Z,5.92
2019-02-06T00:44:10.886Z,5.94
2019-02-06T00:46:41.346Z,5.83
2019-02-06T00:49:11.995Z,5.93
2019-02-06T00:51:43.356Z,5.93
2019-02-06T00:54:13.574Z,5.79
2019-02-06T00:56:43.793Z,5.81
2019-02-06T00:59:14.288Z,5.74
2019-02-06T01:01:44.662Z,5.72
2019-02-06T01:04:18.227Z,5.66
2019-02-06T01:06:48.612Z,5.57
2019-02-06T01:09:19.086Z,5.50
2019-02-06T01:11:49.430Z,5.46
2019-02-06T01:14:19.836Z,5.28
2019-02-06T01:16:50.367Z,5.28
2019-02-06T01:19:20.716Z,5.28
2019-02-06T01:21:50.959Z,5.19
2019-02-06T01:24:21.667Z,5.13
2019-02-06T01:26:51.950Z,5.05
2019-02-06T01:29:22.140Z,5.06
2019-02-06T01:31:53.123Z,4.85
2019-02-06T01:34:23.377Z,4.88
2019-02-06T01:36:53.564Z,4.92
2019-02-06T01:39:23.764Z,4.81
2019-02-06T01:41:54.013Z,4.86
2019-02-06T01:44:24.222Z,4.49
2019-02-06T01:46:54.358Z,4.75
2019-02-06T01:49:24.596Z,4.66
2019-02-06T01:51:54.772Z,4.70
2019-02-06T01:54:25.070Z,4.71
2019-02-06T01:56:56.265Z,4.69
2019-02-06T01:59:26.870Z,4.50
2019-02-06T02:01:57.076Z,4.49
2019-02-06T02:04:27.322Z,4.56
2019-02-06T02:06:57.563Z,4.54
2019-02-06T02:09:28.719Z,4.47
2019-02-06T02:11:58.930Z,4.37
2019-02-06T02:14:29.434Z,4.43
2019-02-06T02:16:59.649Z,4.47
2019-02-06T02:19:30.043Z,4.34
2019-02-06T02:22:00.199Z,4.19
2019-02-06T02:24:30.403Z,4.31
2019-02-06T02:27:00.553Z,4.32
2019-02-06T02:29:30.765Z,4.35
2019-02-06T02:32:01.113Z,4.35
2019-02-06T02:34:31.460Z,4.33
2019-02-06T02:37:01.646Z,4.22
2019-02-06T02:39:31.809Z,4.24
2019-02-06T02:42:02.354Z,4.28
2019-02-06T02:44:32.577Z,4.13
2019-02-06T02:47:03.151Z,4.25
2019-02-06T02:49:33.383Z,4.18
2019-02-06T02:52:03.770Z,4.02
2019-02-06T02:54:34.087Z,4.07
2019-02-06T02:57:04.547Z,4.14
2019-02-06T02:59:34.889Z,4.17
2019-02-06T03:02:30.247Z,4.17
2019-02-06T03:05:05.190Z,4.20
2019-02-06T03:07:36.487Z,4.09
2019-02-06T03:10:07.523Z,3.99
2019-02-06T03:12:37.806Z,4.05
2019-02-06T03:15:08.843Z,3.72
2019-02-06T03:17:39.374Z,3.90
2019-02-06T03:20:10.838Z,3.79
2019-02-06T03:22:41.040Z,3.82
2019-02-06T03:25:11.999Z,3.82
2019-02-06T03:27:42.333Z,3.79
2019-02-06T03:30:14.823Z,3.74
2019-02-06T03:32:45.135Z,3.66
2019-02-06T03:35:18.316Z,3.73
2019-02-06T03:37:48.485Z,3.64
2019-02-06T03:40:18.749Z,3.64
2019-02-06T03:42:48.894Z,3.59
2019-02-06T03:45:21.321Z,3.57
2019-02-06T03:47:54.462Z,3.64
2019-02-06T03:50:24.612Z,3.57
2019-02-06T03:52:55.111Z,3.63
2019-02-06T03:55:25.241Z,3.69
2019-02-06T03:57:55.505Z,3.67
2019-02-06T04:00:25.570Z,3.67
2019-02-06T04:02:56.083Z,3.66
2019-02-06T04:05:32.679Z,3.57
2019-02-06T04:08:03.081Z,3.46
2019-02-06T04:10:33.297Z,3.40
2019-02-06T04:13:03.422Z,3.30
2019-02-06T04:15:33.695Z,3.35
2019-02-06T04:18:09.688Z,3.37
2019-02-06T04:20:43.741Z,3.36
2019-02-06T04:23:16.942Z,3.44
2019-02-06T04:25:47.176Z,3.43
2019-02-06T04:28:22.835Z,3.47
2019-02-06T04:30:53.210Z,3.44
2019-02-06T04:33:31.982Z,3.33
2019-02-06T04:35:58.980Z,3.30
2019-02-06T04:38:29.330Z,3.14
2019-02-06T04:40:59.608Z,3.21
2019-02-06T04:43:31.064Z,3.08
2019-02-06T04:46:08.972Z,3.29
2019-02-06T04:48:42.607Z,3.31
2019-02-06T04:51:12.928Z,3.30
2019-02-06T04:53:43.073Z,3.14
2019-02-06T04:56:13.311Z,3.19
2019-02-06T04:58:43.789Z,3.16
2019-02-06T05:01:32.166Z,3.18
2019-02-06T05:04:02.086Z,3.17
2019-02-06T05:06:32.230Z,3.16
2019-02-06T05:09:03.042Z,3.20
2019-02-06T05:11:35.082Z,3.00
2019-02-06T05:14:05.634Z,3.01
2019-02-06T05:16:43.180Z,3.15
2019-02-06T05:19:13.432Z,3.16
2019-02-06T05:21:43.617Z,3.10
2019-02-06T05:24:13.768Z,3.11
2019-02-06T05:26:49.688Z,3.13
2019-02-06T05:29:20.181Z,3.09
2019-02-06T05:32:00.154Z,3.06
2019-02-06T05:34:33.348Z,3.08
2019-02-06T05:37:03.545Z,3.13
2019-02-06T05:39:33.768Z,3.06
2019-02-06T05:42:04.012Z,3.15
2019-02-06T05:44:35.242Z,3.10
2019-02-06T05:47:06.869Z,3.09
2019-02-06T05:49:37.540Z,3.03
2019-02-06T05:52:10.519Z,2.98
2019-02-06T05:54:40.735Z,3.05
2019-02-06T05:57:10.842Z,3.07
2019-02-06T05:59:41.062Z,3.16
2019-02-06T06:02:12.207Z,3.15
2019-02-06T06:04:42.731Z,3.27
2019-02-06T06:07:12.842Z,3.26
2019-02-06T06:09:43.035Z,3.12
2019-02-06T06:12:13.322Z,3.22
2019-02-06T06:14:43.467Z,3.33
2019-02-06T06:17:13.623Z,3.39
2019-02-06T06:19:44.099Z,3.47
2019-02-06T06:22:14.220Z,3.33
2019-02-06T06:24:44.420Z,3.42
2019-02-06T06:27:14.599Z,3.53
2019-02-06T06:29:44.763Z,3.51
2019-02-06T06:32:15.239Z,3.50
2019-02-06T06:34:45.720Z,3.53
2019-02-06T06:37:16.247Z,3.55
2019-02-06T06:39:46.421Z,3.57
2019-02-06T06:42:16.565Z,3.59
2019-02-06T06:44:46.755Z,3.55
2019-02-06T06:47:16.905Z,3.64
2019-02-06T06:49:48.257Z,3.52
2019-02-06T06:52:18.465Z,3.70
2019-02-06T06:54:49.929Z,3.71
2019-02-06T06:57:22.077Z,3.59
2019-02-06T06:59:52.217Z,3.65
2019-02-06T07:02:23.933Z,3.53
2019-02-06T07:04:54.061Z,3.52
2019-02-06T07:07:24.248Z,3.52
2019-02-06T07:09:55.598Z,3.64
2019-02-06T07:12:26.023Z,3.55
2019-02-06T07:14:56.525Z,3.45
2019-02-06T07:17:26.757Z,3.43
2019-02-06T07:19:56.919Z,3.42
2019-02-06T07:22:27.928Z,3.38
2019-02-06T07:24:59.352Z,3.38
2019-02-06T07:27:29.615Z,3.42
2019-02-06T07:30:01.735Z,3.42
2019-02-06T07:32:32.245Z,3.38
2019-02-06T07:35:02.515Z,3.45
2019-02-06T07:37:33.128Z,3.51
2019-02-06T07:40:03.365Z,3.72
2019-02-06T07:42:33.897Z,3.81
2019-02-06T07:45:04.587Z,3.81
2019-02-06T07:47:37.827Z,3.81
2019-02-06T07:50:11.805Z,3.98
2019-02-06T07:52:42.058Z,4.07
2019-02-06T07:55:14.457Z,4.14
2019-02-06T07:57:44.611Z,4.24
2019-02-06T08:00:14.810Z,4.44
2019-02-06T08:02:45.052Z,4.46
2019-02-06T08:05:19.241Z,4.54
2019-02-06T08:07:49.880Z,4.62
2019-02-06T08:10:22.694Z,4.61
2019-02-06T08:12:52.898Z,4.54
2019-02-06T08:15:24.008Z,4.51
2019-02-06T08:17:54.381Z,4.55
2019-02-06T08:20:27.465Z,4.69
2019-02-06T08:22:57.955Z,4.68
2019-02-06T08:25:29.307Z,4.76
2019-02-06T08:27:59.469Z,4.71
2019-02-06T08:30:32.642Z,4.85
2019-02-06T08:33:02.738Z,4.85
2019-02-06T08:35:33.336Z,4.84
2019-02-06T08:38:05.728Z,4.73
2019-02-06T08:40:36.940Z,4.70
2019-02-06T08:43:07.073Z,4.78
2019-02-06T08:45:38.006Z,4.81
2019-02-06T08:48:07.938Z,4.88
2019-02-06T08:50:38.117Z,4.84
2019-02-06T08:53:08.274Z,5.02
2019-02-06T08:55:38.396Z,5.16
2019-02-06T08:58:08.544Z,5.24
2019-02-06T09:00:40.434Z,5.28
2019-02-06T09:03:12.064Z,5.37
2019-02-06T09:05:42.210Z,5.43
2019-02-06T09:08:12.410Z,5.59
2019-02-06T09:10:42.521Z,5.67
2019-02-06T09:13:12.856Z,5.80
2019-02-06T09:15:42.977Z,5.83
2019-02-06T09:18:13.132Z,5.84
2019-02-06T09:20:44.384Z,5.74
2019-02-06T09:23:14.572Z,5.83
2019-02-06T09:25:44.767Z,5.92
2019-02-06T09:28:16.166Z,5.92
2019-02-06T09:30:46.568Z,5.99
2019-02-06T09:33:16.740Z,6.08
2019-02-06T09:35:46.911Z,6.23
2019-02-06T09:38:19.021Z,6.13
2019-02-06T09:40:49.712Z,6.17
2019-02-06T09:43:19.991Z,6.18
2019-02-06T09:45:50.330Z,6.23
2019-02-06T09:48:20.684Z,6.20
2019-02-06T09:50:50.855Z,6.24
2019-02-06T09:53:20.969Z,6.18
2019-02-06T09:55:53.321Z,6.20
2019-02-06T09:58:23.694Z,6.31
2019-02-06T10:00:53.877Z,6.23
2019-02-06T10:03:24.118Z,6.24
2019-02-06T10:05:54.660Z,6.19
2019-02-06T10:08:24.907Z,6.35
2019-02-06T10:10:56.051Z,6.37
2019-02-06T10:13:27.891Z,6.49
2019-02-06T10:15:59.767Z,6.54
2019-02-06T10:18:33.741Z,6.54
2019-02-06T10:21:12.219Z,6.75
2019-02-06T10:23:42.687Z,6.65
2019-02-06T10:26:13.726Z,6.62
2019-02-06T10:28:44.885Z,6.66
2019-02-06T10:31:15.077Z,6.68
2019-02-06T10:33:45.301Z,6.63
2019-02-06T10:36:15.912Z,6.75
2019-02-06T10:38:46.400Z,6.66
2019-02-06T10:41:16.654Z,6.71
2019-02-06T10:43:46.792Z,6.58
2019-02-06T10:46:19.189Z,6.59
2019-02-06T10:48:49.342Z,6.56
2019-02-06T10:51:19.567Z,6.71
2019-02-06T10:53:49.885Z,6.66
2019-02-06T10:56:20.216Z,6.67
2019-02-06T10:58:50.646Z,6.76
2019-02-06T11:01:21.134Z,6.86
2019-02-06T11:03:51.262Z,6.92
2019-02-06T11:06:24.166Z,6.94
2019-02-06T11:08:54.289Z,7.01
2019-02-06T11:11:26.229Z,7.01
2019-02-06T11:13:56.326Z,7.08
2019-02-06T11:16:32.066Z,7.10
2019-02-06T11:19:02.623Z,7.11
2019-02-06T11:21:32.959Z,7.19
2019-02-06T11:24:03.563Z,7.26
2019-02-06T11:26:33.915Z,7.25
2019-02-06T11:29:04.457Z,7.40
2019-02-06T11:31:35.172Z,7.53
2019-02-06T11:34:05.743Z,7.60
2019-02-06T11:36:38.017Z,7.77
2019-02-06T11:39:19.018Z,7.72
2019-02-06T11:41:49.295Z,7.73
2019-02-06T11:44:21.756Z,7.77
2019-02-06T11:46:52.192Z,7.96
2019-02-06T11:49:34.468Z,8.03
2019-02-06T11:52:05.366Z,8.22
2019-02-06T11:54:41.012Z,8.17
2019-02-06T11:57:11.770Z,8.15
2019-02-06T11:59:42.664Z,8.25
2019-02-06T12:02:15.193Z,8.28
2019-02-06T12:04:47.256Z,8.42
2019-02-06T12:07:18.224Z,8.38
2019-02-06T12:09:55.218Z,8.58
2019-02-06T12:12:33.318Z,8.58
2019-02-06T12:15:18.443Z,8.63
2019-02-06T12:17:50.094Z,8.54
2019-02-06T12:20:21.304Z,8.36
2019-02-06T12:22:52.478Z,8.46
2019-02-06T12:25:24.748Z,8.54
2019-02-06T12:27:55.929Z,8.52
2019-02-06T12:30:28.896Z,8.60
2019-02-06T12:33:02.682Z,8.73
2019-02-06T12:35:32.964Z,8.83
2019-02-06T12:38:04.179Z,8.64
2019-02-06T12:40:35.293Z,8.69
2019-02-06T12:43:06.642Z,8.81
2019-02-06T12:45:52.406Z,9.00
2019-02-06T12:48:23.170Z,8.91
2019-02-06T12:50:53.620Z,8.76
2019-02-06T12:53:23.999Z,8.77
2019-02-06T12:55:54.484Z,8.78
2019-02-06T12:58:27.477Z,8.84
2019-02-06T13:00:58.180Z,8.85
2019-02-06T13:03:51.298Z,8.81
2019-02-06T13:06:23.491Z,8.83
2019-02-06T13:08:54.328Z,8.82
2019-02-06T13:11:33.105Z,8.75
2019-02-06T13:14:06.142Z,8.72
2019-02-06T13:16:36.946Z,8.70
2019-02-06T13:19:08.982Z,8.81
2019-02-06T13:21:39.659Z,8.88
2019-02-06T13:24:10.334Z,8.82
2019-02-06T13:26:40.867Z,8.86
2019-02-06T13:29:14.179Z,8.91
2019-02-06T13:31:45.499Z,8.84
2019-02-06T13:34:18.600Z,8.72
2019-02-06T13:36:49.358Z,8.70
2019-02-06T13:39:22.794Z,8.80
2019-02-06T13:41:57.422Z,8.76
2019-02-06T13:44:27.606Z,8.89
2019-02-06T13:46:57.802Z,8.97
2019-02-06T13:49:27.942Z,8.93
2019-02-06T13:51:58.199Z,8.86
2019-02-06T13:54:31.969Z,8.79
2019-02-06T13:57:02.604Z,8.85
2019-02-06T13:59:32.883Z,8.96
2019-02-06T14:02:04.459Z,8.97
2019-02-06T14:04:34.804Z,9.00
2019-02-06T14:07:05.205Z,9.02
2019-02-06T14:09:35.862Z,9.09
2019-02-06T14:12:06.045Z,9.05
2019-02-06T14:14:36.304Z,8.97
2019-02-06T14:17:06.589Z,8.95
2019-02-06T14:19:37.158Z,8.81
2019-02-06T14:22:10.367Z,8.78
2019-02-06T14:24:48.065Z,8.86
2019-02-06T14:27:44.507Z,8.85
2019-02-06T14:31:12.789Z,8.88
2019-02-06T14:34:10.691Z,8.86
2019-02-06T14:37:14.532Z,8.91
2019-02-06T14:40:17.253Z,8.76
2019-02-06T14:43:13.779Z,8.84
2019-02-06T14:46:29.647Z,8.86
2019-02-06T14:49:40.165Z,8.82
2019-02-06T14:52:57.207Z,8.84
2019-02-06T14:56:09.175Z,8.70
2019-02-06T14:59:26.072Z,8.82
2019-02-06T15:02:48.819Z,8.76
2019-02-06T15:05:41.995Z,8.78
2019-02-06T15:09:14.072Z,8.74
2019-02-06T15:12:21.055Z,8.78
2019-02-06T15:15:25.868Z,8.76
2019-02-06T15:18:22.675Z,8.74
2019-02-06T15:21:32.898Z,8.69
2019-02-06T15:24:34.689Z,8.64
2019-02-06T15:27:46.947Z,8.72
2019-02-06T15:31:14.725Z,8.54
2019-02-06T15:34:33.605Z,8.59
2019-02-06T15:37:42.556Z,8.63
2019-02-06T15:40:52.763Z,8.61
2019-02-06T15:44:09.882Z,8.53
2019-02-06T15:47:10.232Z,8.64
2019-02-06T15:50:26.550Z,8.60
2019-02-06T15:53:57.138Z,8.63
2019-02-06T15:56:54.240Z,8.53
2019-02-06T15:59:56.202Z,8.49
2019-02-06T16:02:59.170Z,8.48
2019-02-06T16:06:16.639Z,8.44
2019-02-06T16:09:12.152Z,8.45
2019-02-06T16:12:23.332Z,8.33
2019-02-06T16:15:26.888Z,8.30
2019-02-06T16:18:40.012Z,8.34
2019-02-06T16:21:52.641Z,8.32
2019-02-06T16:24:50.277Z,8.40
2019-02-06T16:27:31.280Z,8.37
2019-02-06T16:30:18.928Z,8.16
2019-02-06T16:33:19.203Z,8.23
2019-02-06T16:40:27.453Z,8.33
2019-02-06T16:43:30.786Z,8.36
2019-02-06T16:46:42.483Z,8.26
2019-02-06T16:49:31.879Z,8.31
2019-02-06T16:52:52.253Z,8.39
2019-02-06T16:56:11.181Z,8.39
2019-02-06T16:59:20.737Z,8.44
2019-02-06T17:02:24.702Z,8.46
2019-02-06T17:05:32.747Z,8.47
2019-02-06T17:08:40.907Z,8.45
2019-02-06T17:12:10.239Z,8.49
2019-02-06T17:15:36.821Z,8.28
2019-02-06T17:18:39.710Z,8.27
2019-02-06T17:25:14.592Z,8.22
2019-02-06T17:28:03.088Z,8.20
2019-02-06T17:31:36.302Z,8.28
2019-02-06T17:35:08.551Z,8.30
2019-02-06T17:38:32.997Z,8.39
2019-02-06T17:41:44.920Z,8.40
2019-02-06T17:45:00.419Z,8.30
2019-02-06T17:48:20.454Z,8.03
2019-02-06T17:51:27.333Z,8.17
2019-02-06T17:54:21.339Z,8.22
2019-02-06T17:56:51.908Z,8.29
2019-02-06T17:59:24.763Z,8.20
2019-02-06T18:01:56.222Z,8.18
2019-02-06T18:04:33.141Z,8.15
2019-02-06T18:07:07.041Z,8.14
2019-02-06T18:09:40.698Z,8.12
2019-02-06T18:12:14.066Z,8.16
2019-02-06T18:14:44.485Z,8.18
2019-02-06T18:17:26.929Z,8.23
2019-02-06T18:20:03.589Z,8.24
2019-02-06T18:22:35.726Z,8.28
2019-02-06T18:25:07.127Z,8.15
2019-02-06T18:27:38.400Z,8.23
2019-02-06T18:30:15.712Z,8.22
2019-02-06T18:32:52.568Z,8.21
2019-02-06T18:35:23.344Z,8.23
2019-02-06T18:37:59.525Z,8.12
2019-02-06T18:40:34.151Z,8.12
2019-02-06T18:43:04.838Z,8.19
2019-02-06T18:45:36.842Z,8.15
2019-02-06T18:48:10.893Z,8.09
2019-02-06T18:50:41.554Z,8.04
2019-02-06T18:53:12.142Z,8.01
2019-02-06T18:55:43.984Z,8.05
2019-02-06T18:58:27.928Z,8.04
2019-02-06T19:00:59.158Z,8.01
2019-02-06T19:03:34.947Z,7.77
2019-02-06T19:06:06.646Z,7.78
2019-02-06T19:08:40.446Z,7.89
2019-02-06T19:11:12.017Z,7.88
2019-02-06T19:13:42.226Z,7.85
2019-02-06T19:16:12.602Z,7.75
2019-02-06T19:18:44.315Z,7.68
2019-02-06T19:21:26.624Z,7.70
2019-02-06T19:24:00.675Z,7.73
2019-02-06T19:26:34.482Z,7.55
2019-02-06T19:29:05.339Z,7.62
2019-02-06T19:31:39.680Z,7.56
2019-02-06T19:34:15.859Z,7.54
2019-02-06T19:36:49.851Z,7.48
2019-02-06T19:39:20.210Z,7.49
2019-02-06T19:41:51.860Z,7.57
2019-02-06T19:44:22.286Z,7.64
2019-02-06T19:46:53.053Z,7.61
2019-02-06T19:49:37.691Z,7.59
2019-02-06T19:52:11.077Z,7.60
2019-02-06T19:54:41.271Z,7.65
2019-02-06T19:57:11.554Z,7.69
2019-02-06T19:59:42.386Z,7.73
2019-02-06T20:02:13.636Z,7.80
2019-02-06T20:04:43.884Z,7.77
2019-02-06T20:07:14.210Z,7.71
2019-02-06T20:09:45.656Z,7.74
2019-02-06T20:12:18.037Z,7.81
2019-02-06T20:14:50.384Z,7.87
2019-02-06T20:17:37.974Z,7.83
2019-02-06T20:20:10.582Z,7.88
2019-02-06T20:22:41.648Z,7.86
2019-02-06T20:25:12.797Z,7.82
2019-02-06T20:27:43.400Z,7.83
2019-02-06T20:30:16.810Z,7.75
2019-02-06T20:33:04.290Z,7.73
2019-02-06T20:35:43.079Z,7.82
2019-02-06T20:38:13.566Z,7.78
2019-02-06T20:40:45.920Z,7.69
2019-02-06T20:43:22.121Z,7.75
2019-02-06T20:46:02.168Z,7.65
2019-02-06T20:48:32.622Z,7.76
2019-02-06T20:51:06.052Z,7.76
2019-02-06T20:53:36.318Z,7.76
2019-02-06T20:56:06.554Z,7.69
2019-02-06T20:58:39.514Z,7.81
2019-02-06T21:01:12.029Z,7.82
2019-02-06T21:03:42.715Z,7.85
2019-02-06T21:06:19.350Z,7.89
2019-02-06T21:08:50.262Z,7.88
2019-02-06T21:11:20.624Z,7.82
2019-02-06T21:13:52.941Z,7.87
2019-02-06T21:16:24.453Z,7.86
2019-02-06T21:18:54.872Z,7.75
2019-02-06T21:21:25.038Z,7.86
2019-02-06T21:23:55.267Z,7.79
2019-02-06T21:26:25.849Z,7.71
2019-02-06T21:28:56.009Z,7.78
2019-02-06T21:31:26.369Z,7.84
2019-02-06T21:33:56.675Z,7.78
2019-02-06T21:36:26.944Z,7.79
2019-02-06T21:38:59.664Z,7.75
2019-02-06T21:41:30.023Z,7.73
2019-02-06T21:44:02.522Z,7.75
2019-02-06T21:46:32.817Z,7.75
2019-02-06T21:49:03.018Z,7.73
2019-02-06T21:51:33.322Z,7.82
2019-02-06T21:54:03.895Z,7.84
2019-02-06T21:56:34.551Z,7.96
2019-02-06T21:59:06.332Z,7.94
2019-02-06T22:01:37.095Z,7.88
2019-02-06T22:04:07.391Z,7.77
2019-02-06T22:06:37.634Z,7.59
2019-02-06T22:09:12.260Z,7.72
2019-02-06T22:11:42.579Z,7.77
2019-02-06T22:14:13.141Z,7.73
2019-02-06T22:16:43.332Z,7.77
2019-02-06T22:19:13.577Z,7.70
2019-02-06T22:21:47.795Z,7.61
2019-02-06T22:24:18.093Z,7.76
2019-02-06T22:26:48.269Z,7.68
2019-02-06T22:29:18.753Z,7.58
2019-02-06T22:31:49.429Z,7.64
2019-02-06T22:34:20.025Z,7.77
2019-02-06T22:36:50.513Z,7.69
2019-02-06T22:39:21.283Z,7.67
2019-02-06T22:41:51.513Z,7.69
2019-02-06T22:44:23.224Z,7.67
2019-02-06T22:46:53.699Z,7.73
2019-02-06T22:49:23.861Z,7.53
2019-02-06T22:51:55.218Z,7.45
2019-02-06T22:54:25.355Z,7.51
2019-02-06T22:56:56.125Z,7.54
2019-02-06T22:59:26.312Z,7.56
2019-02-06T23:02:02.278Z,7.55
2019-02-06T23:04:32.891Z,7.63
2019-02-06T23:07:03.107Z,7.53
2019-02-06T23:09:35.690Z,7.38
2019-02-06T23:12:06.567Z,7.54
2019-02-06T23:14:36.732Z,7.40
2019-02-06T23:17:14.238Z,7.50
2019-02-06T23:19:48.954Z,7.38
2019-02-06T23:22:19.213Z,7.27
2019-02-06T23:24:49.930Z,7.37
2019-02-06T23:27:38.459Z,7.50
2019-02-06T23:30:09.520Z,7.58
2019-02-06T23:32:40.607Z,7.55
2019-02-06T23:35:10.934Z,7.44
2019-02-06T23:37:41.056Z,7.47
2019-02-06T23:40:11.758Z,7.40
2019-02-06T23:42:41.985Z,7.51
2019-02-06T23:45:13.000Z,7.37
2019-02-06T23:47:43.535Z,7.35
2019-02-06T23:50:14.338Z,7.25
2019-02-06T23:52:48.209Z,7.27
2019-02-06T23:55:18.360Z,7.23
2019-02-06T23:57:51.813Z,7.28
